Terminal Aerodrome Forecast
Issued by NWS Detroit/Pontiac, MI

Home | Current Version | Previous Version | Text Only | Print | Product List | Glossary On
Versions: 1 2 3 4 5 6 7 8 9 10 11 12 13 14 15 16 17 18 19 20
000
FTUS43 KDTX 012300
TAFFNT
TAF
KFNT 012327Z 0200/0224 13004KT P6SM FEW040 SCT200
     FM020200 15004KT P6SM BKN200
     FM020800 16004KT 3SM BR BKN008
     FM021400 16007KT P6SM BKN060 BKN150
     FM022100 17010KT P6SM BKN045 OVC090=

USA.gov is the U.S. government's official web portal to all federal, state and local government web resources and services.